»·PEaware :: DCM717 KYKM-KBOI

DCM717 :: KYKM-KBOI

FLIGHT INFORMATION

Flight Status: Arrived
Operator: DotCom
More flights by this operator :: More flights under this callsign
Pilot: Ty S. (2873)
Aircraft: BOEING 737-300
(B733)
More flights by this aircraft type
Origin: KYKM Yakima Air Term/Mcallister
United States
Destination: KBOI Boise Air Terminal/Gowen
United States
More flights between these airports :: More routes between these airports
Route: +GROMO4 SUNED HOSTS PARMO3
File this flight plan on PilotEdge
Remarks: RMK / SIMBRIEF
Altitude:
(Current/Filed)
33,000ft
Speed:
(Current/Filed)
422kts
Departed: 22-May-20 05:06 PM
Arrived: 22-May-20 05:54 PM
Distance/Time
Traveled:
256nm/0:47
Distance/Time
To Go:
Arrived

Flight Plot

Page will automatically refresh every two minutes.


Map Options




Map Legend


Flown Route
Filed Route
Departure Airport
Arrival Airport
Navaid (VOR, NDB)
Fix

Horizontal Profiles

Position Reports

Time Latitude Longitude Heading Altitude Ground
Speed
22-May-20 16:07 46.573013 -120.554351 111 1106ft 0kts
22-May-20 16:08 46.573013 -120.554351 111 1106ft 0kts
22-May-20 16:09 46.573013 -120.554351 111 1106ft 0kts
22-May-20 16:10 46.573013 -120.554351 111 1106ft 0kts
22-May-20 16:11 46.573013 -120.554351 111 1106ft 0kts
22-May-20 16:12 46.573013 -120.554351 111 1106ft 0kts
22-May-20 16:13 46.573013 -120.554351 111 1106ft 0kts
22-May-20 16:14 46.573013 -120.554351 111 1106ft 0kts
22-May-20 16:15 46.573013 -120.554351 111 1106ft 0kts
22-May-20 16:16 46.573013 -120.554351 111 1106ft 0kts
22-May-20 16:17 46.573013 -120.554351 111 1106ft 0kts
22-May-20 16:18 46.573013 -120.554351 111 1106ft 0kts
22-May-20 16:19 46.573013 -120.554351 111 1106ft 0kts
22-May-20 16:20 46.573013 -120.554351 111 1106ft 0kts
22-May-20 16:21 46.573013 -120.554351 111 1106ft 0kts
22-May-20 16:22 46.573013 -120.554351 111 1106ft 0kts
22-May-20 16:23 46.573013 -120.554351 111 1106ft 0kts
22-May-20 16:24 46.573013 -120.554351 111 1106ft 0kts
22-May-20 16:25 46.573013 -120.554351 111 1106ft 0kts
22-May-20 16:26 46.573013 -120.554351 111 1106ft 0kts
22-May-20 16:27 46.573013 -120.554351 111 1106ft 0kts
22-May-20 16:28 46.573013 -120.554351 111 1106ft 0kts
22-May-20 16:29 46.573013 -120.554351 111 1106ft 0kts
22-May-20 16:30 46.573013 -120.554351 111 1106ft 0kts
22-May-20 16:31 46.573013 -120.554351 111 1106ft 0kts
22-May-20 16:32 46.573013 -120.554351 111 1106ft 0kts
22-May-20 16:33 46.573013 -120.554351 111 1106ft 0kts
22-May-20 16:34 46.573013 -120.554351 111 1106ft 0kts
22-May-20 16:35 46.573013 -120.554351 111 1106ft 0kts
22-May-20 16:36 46.573013 -120.554351 111 1106ft 0kts
22-May-20 16:37 46.573013 -120.554351 111 1106ft 0kts
22-May-20 16:38 46.573013 -120.554351 111 1106ft 0kts
22-May-20 16:39 46.573013 -120.554351 111 1106ft 0kts
22-May-20 16:40 46.573013 -120.554351 111 1106ft 0kts
22-May-20 16:41 46.573013 -120.554351 111 1106ft 0kts
22-May-20 16:42 46.573013 -120.554351 111 1106ft 0kts
22-May-20 16:43 46.573013 -120.554351 111 1106ft 0kts
22-May-20 16:44 46.573013 -120.554351 111 1106ft 0kts
22-May-20 16:45 46.573013 -120.554351 111 1106ft 0kts
22-May-20 16:46 46.573013 -120.554351 111 1106ft 0kts
22-May-20 16:47 46.573013 -120.554351 111 1106ft 0kts
22-May-20 16:48 46.573013 -120.554351 111 1106ft 0kts
22-May-20 16:49 46.573013 -120.554351 111 1106ft 0kts
22-May-20 16:50 46.573013 -120.554351 111 1106ft 0kts
22-May-20 16:51 46.573013 -120.554351 111 1106ft 0kts
22-May-20 16:52 46.573013 -120.554351 111 1106ft 0kts
22-May-20 16:53 46.573013 -120.554351 111 1106ft 0kts
22-May-20 16:54 46.573013 -120.554351 111 1106ft 0kts
22-May-20 16:55 46.573013 -120.554351 111 1106ft 0kts
22-May-20 16:56 46.573013 -120.554351 111 1106ft 0kts
22-May-20 16:57 46.573000 -120.554301 112 1106ft 1kts
22-May-20 16:58 46.572848 -120.553958 152 1106ft 0kts
22-May-20 16:59 46.571369 -120.550158 110 1106ft 15kts
22-May-20 17:00 46.569817 -120.543924 109 1106ft 22kts
22-May-20 17:01 46.568002 -120.536708 110 1106ft 21kts
22-May-20 17:02 46.566535 -120.531590 160 1106ft 0kts
22-May-20 17:03 46.566535 -120.531590 160 1106ft 0kts
22-May-20 17:04 46.565669 -120.532047 300 1106ft 0kts
22-May-20 17:05 46.569879 -120.548814 289 1106ft 139kts
22-May-20 17:06 46.578511 -120.606335 263 2918ft 175kts
22-May-20 17:07 46.534376 -120.655860 165 5073ft 278kts
22-May-20 17:08 46.464472 -120.597918 129 7878ft 302kts
22-May-20 17:09 46.425817 -120.487687 102 10290ft 321kts
22-May-20 17:10 46.436567 -120.351608 61 12364ft 349kts
22-May-20 17:11 46.473443 -120.226652 93 14913ft 374kts
22-May-20 17:12 46.399950 -120.123491 158 17233ft 401kts
22-May-20 17:13 46.321229 -120.006220 127 19431ft 412kts
22-May-20 17:14 46.233984 -119.892070 141 21513ft 429kts
22-May-20 17:15 46.137042 -119.785254 140 23412ft 442kts
22-May-20 17:16 46.036841 -119.674941 140 25173ft 454kts
22-May-20 17:17 45.934183 -119.562453 140 26813ft 466kts
22-May-20 17:18 45.831758 -119.451033 139 28342ft 474kts
22-May-20 17:19 45.729325 -119.339892 140 30140ft 470kts
22-May-20 17:20 45.624014 -119.225897 139 31717ft 467kts
22-May-20 17:21 45.519221 -119.113242 139 33001ft 468kts
22-May-20 17:23 45.414598 -119.001326 139 33057ft 461kts
22-May-20 17:24 45.311360 -118.891392 139 33059ft 457kts
22-May-20 17:25 45.208617 -118.782494 139 33060ft 452kts
22-May-20 17:26 45.106637 -118.674901 139 33068ft 454kts
22-May-20 17:27 45.005181 -118.568361 140 33078ft 447kts
22-May-20 17:28 44.904959 -118.463578 140 33073ft 443kts
22-May-20 17:29 44.806615 -118.361544 140 33079ft 445kts
22-May-20 17:30 44.708855 -118.259952 141 33068ft 444kts
22-May-20 17:31 44.608092 -118.155973 141 33069ft 444kts
22-May-20 17:32 44.507725 -118.052871 141 33067ft 444kts
22-May-20 17:33 44.406704 -117.949540 141 33067ft 445kts
22-May-20 17:34 44.305619 -117.846595 141 33028ft 446kts
22-May-20 17:35 44.202873 -117.742450 142 30150ft 447kts
22-May-20 17:36 44.103135 -117.641754 142 27818ft 431kts
22-May-20 17:37 44.006515 -117.544668 142 25549ft 415kts
22-May-20 17:38 43.949835 -117.413466 110 22835ft 392kts
22-May-20 17:39 43.907074 -117.277562 111 20027ft 376kts
22-May-20 17:39 43.874954 -117.177230 112 17944ft 365kts
22-May-20 17:40 43.834286 -117.050276 113 15307ft 349kts
22-May-20 17:42 43.788587 -116.910093 113 12443ft 327kts
22-May-20 17:42 43.758353 -116.818940 122 11443ft 300kts
22-May-20 17:43 43.706166 -116.728193 128 9634ft 294kts
22-May-20 17:45 43.646303 -116.625212 128 7957ft 289kts
22-May-20 17:45 43.604094 -116.552726 128 7050ft 283kts
22-May-20 17:46 43.557654 -116.463113 113 7039ft 284kts
22-May-20 17:47 43.527061 -116.362610 108 6280ft 288kts
22-May-20 17:48 43.499480 -116.264248 110 5562ft 262kts
22-May-20 17:49 43.485360 -116.178233 60 5368ft 197kts
22-May-20 17:50 43.522944 -116.132555 6 4485ft 141kts
22-May-20 17:51 43.546331 -116.167393 297 3498ft 135kts
22-May-20 17:52 43.562111 -116.213183 297 2878ft 99kts
22-May-20 17:53 43.566991 -116.224147 319 2878ft 10kts
22-May-20 17:54 43.568920 -116.229577 295 2878ft 18kts
22-May-20 17:55 43.570387 -116.231619 271 2878ft 0kts
22-May-20 17:56 43.570387 -116.231618 270 2878ft 0kts
22-May-20 17:57 43.570387 -116.231618 270 2878ft 0kts
22-May-20 18:04 43.570560 -116.231721 201 2878ft 0kts
22-May-20 18:05 43.570560 -116.231721 201 2878ft 0kts
22-May-20 18:06 43.570560 -116.231721 201 2878ft 0kts
22-May-20 18:07 43.570560 -116.231721 201 2878ft 0kts

Navigation Log

Ident Type
Flight plan parsing failed, navigation log unavailable